sensor_id;sensor_type;location;lat;lon;timestamp;P1;durP1;ratioP1;P2;durP2;ratioP2
24161;SDS011;12318;51.262;7.066;2023-11-19T00:00:16;8.98;;;8.05;;
24161;SDS011;12318;51.262;7.066;2023-11-19T00:02:42;11.15;;;9.98;;
24161;SDS011;12318;51.262;7.066;2023-11-19T00:05:08;10.55;;;8.52;;
24161;SDS011;12318;51.262;7.066;2023-11-19T00:07:36;18.45;;;9.43;;
24161;SDS011;12318;51.262;7.066;2023-11-19T00:10:02;6.82;;;6.07;;
24161;SDS011;12318;51.262;7.066;2023-11-19T00:12:32;10.30;;;9.23;;
24161;SDS011;12318;51.262;7.066;2023-11-19T00:14:58;8.90;;;7.10;;
24161;SDS011;12318;51.262;7.066;2023-11-19T00:17:24;14.48;;;9.45;;
24161;SDS011;12318;51.262;7.066;2023-11-19T00:19:52;10.30;;;7.63;;
24161;SDS011;12318;51.262;7.066;2023-11-19T00:22:18;11.50;;;9.15;;
24161;SDS011;12318;51.262;7.066;2023-11-19T00:24:46;14.63;;;8.32;;
24161;SDS011;12318;51.262;7.066;2023-11-19T00:27:12;19.27;;;12.93;;
24161;SDS011;12318;51.262;7.066;2023-11-19T00:29:38;15.63;;;11.15;;
24161;SDS011;12318;51.262;7.066;2023-11-19T00:32:05;13.30;;;9.18;;
24161;SDS011;12318;51.262;7.066;2023-11-19T00:34:32;10.10;;;7.95;;
24161;SDS011;12318;51.262;7.066;2023-11-19T00:36:58;14.18;;;7.72;;
24161;SDS011;12318;51.262;7.066;2023-11-19T00:39:24;10.27;;;7.45;;
24161;SDS011;12318;51.262;7.066;2023-11-19T00:41:51;10.35;;;6.75;;
24161;SDS011;12318;51.262;7.066;2023-11-19T00:44:17;14.23;;;8.50;;
24161;SDS011;12318;51.262;7.066;2023-11-19T00:46:44;11.10;;;7.55;;
24161;SDS011;12318;51.262;7.066;2023-11-19T00:49:10;12.32;;;7.35;;
24161;SDS011;12318;51.262;7.066;2023-11-19T00:51:37;16.05;;;6.80;;
24161;SDS011;12318;51.262;7.066;2023-11-19T00:54:03;15.77;;;7.90;;
24161;SDS011;12318;51.262;7.066;2023-11-19T00:56:29;13.10;;;7.78;;
24161;SDS011;12318;51.262;7.066;2023-11-19T00:58:55;11.68;;;7.50;;
24161;SDS011;12318;51.262;7.066;2023-11-19T01:01:22;12.90;;;7.57;;
24161;SDS011;12318;51.262;7.066;2023-11-19T01:03:48;10.75;;;7.20;;
24161;SDS011;12318;51.262;7.066;2023-11-19T01:06:14;11.40;;;7.28;;
24161;SDS011;12318;51.262;7.066;2023-11-19T01:08:42;15.13;;;6.57;;
24161;SDS011;12318;51.262;7.066;2023-11-19T01:11:18;17.02;;;7.20;;
24161;SDS011;12318;51.262;7.066;2023-11-19T01:13:46;16.45;;;8.70;;
24161;SDS011;12318;51.262;7.066;2023-11-19T01:16:12;14.25;;;5.75;;
24161;SDS011;12318;51.262;7.066;2023-11-19T01:18:38;14.90;;;7.63;;
24161;SDS011;12318;51.262;7.066;2023-11-19T01:21:04;9.07;;;5.43;;
24161;SDS011;12318;51.262;7.066;2023-11-19T01:23:31;12.07;;;8.13;;
24161;SDS011;12318;51.262;7.066;2023-11-19T01:25:57;13.98;;;8.85;;
24161;SDS011;12318;51.262;7.066;2023-11-19T01:28:24;7.13;;;4.88;;
24161;SDS011;12318;51.262;7.066;2023-11-19T01:30:50;10.23;;;7.10;;
24161;SDS011;12318;51.262;7.066;2023-11-19T01:33:16;16.92;;;8.55;;
24161;SDS011;12318;51.262;7.066;2023-11-19T01:35:42;14.35;;;8.02;;
24161;SDS011;12318;51.262;7.066;2023-11-19T01:38:09;16.20;;;8.43;;
24161;SDS011;12318;51.262;7.066;2023-11-19T01:40:35;18.83;;;8.90;;
24161;SDS011;12318;51.262;7.066;2023-11-19T01:43:02;10.55;;;5.90;;
24161;SDS011;12318;51.262;7.066;2023-11-19T01:45:29;16.10;;;7.65;;
24161;SDS011;12318;51.262;7.066;2023-11-19T01:47:59;13.23;;;7.25;;
24161;SDS011;12318;51.262;7.066;2023-11-19T01:50:26;15.63;;;6.68;;
24161;SDS011;12318;51.262;7.066;2023-11-19T01:52:52;16.00;;;6.57;;
24161;SDS011;12318;51.262;7.066;2023-11-19T01:55:22;15.13;;;6.35;;
24161;SDS011;12318;51.262;7.066;2023-11-19T01:57:49;14.77;;;5.65;;
24161;SDS011;12318;51.262;7.066;2023-11-19T02:00:16;9.98;;;5.03;;
24161;SDS011;12318;51.262;7.066;2023-11-19T02:02:49;13.32;;;4.05;;
24161;SDS011;12318;51.262;7.066;2023-11-19T02:05:17;12.05;;;4.28;;
24161;SDS011;12318;51.262;7.066;2023-11-19T02:07:43;13.82;;;3.92;;
24161;SDS011;12318;51.262;7.066;2023-11-19T02:10:11;9.35;;;3.90;;
24161;SDS011;12318;51.262;7.066;2023-11-19T02:12:42;9.50;;;2.78;;
24161;SDS011;12318;51.262;7.066;2023-11-19T02:15:09;4.88;;;3.50;;
24161;SDS011;12318;51.262;7.066;2023-11-19T02:17:36;7.30;;;3.45;;
24161;SDS011;12318;51.262;7.066;2023-11-19T02:20:05;9.15;;;3.67;;
24161;SDS011;12318;51.262;7.066;2023-11-19T02:22:34;10.88;;;4.38;;
24161;SDS011;12318;51.262;7.066;2023-11-19T02:25:01;8.00;;;3.60;;
24161;SDS011;12318;51.262;7.066;2023-11-19T02:30:06;12.15;;;3.58;;
24161;SDS011;12318;51.262;7.066;2023-11-19T02:32:34;16.10;;;4.18;;
24161;SDS011;12318;51.262;7.066;2023-11-19T02:35:01;11.63;;;3.92;;
24161;SDS011;12318;51.262;7.066;2023-11-19T02:37:27;12.23;;;4.47;;
24161;SDS011;12318;51.262;7.066;2023-11-19T02:39:53;14.43;;;4.22;;
24161;SDS011;12318;51.262;7.066;2023-11-19T02:42:20;11.30;;;4.38;;
24161;SDS011;12318;51.262;7.066;2023-11-19T02:44:46;9.25;;;4.55;;
24161;SDS011;12318;51.262;7.066;2023-11-19T02:47:13;18.65;;;5.15;;
24161;SDS011;12318;51.262;7.066;2023-11-19T02:49:39;15.98;;;4.65;;
24161;SDS011;12318;51.262;7.066;2023-11-19T02:52:06;16.67;;;5.43;;
24161;SDS011;12318;51.262;7.066;2023-11-19T02:54:32;20.70;;;4.53;;
24161;SDS011;12318;51.262;7.066;2023-11-19T02:57:00;15.68;;;5.25;;
24161;SDS011;12318;51.262;7.066;2023-11-19T02:59:27;19.90;;;4.93;;
24161;SDS011;12318;51.262;7.066;2023-11-19T03:02:04;17.48;;;4.82;;
24161;SDS011;12318;51.262;7.066;2023-11-19T03:04:32;21.15;;;4.43;;
24161;SDS011;12318;51.262;7.066;2023-11-19T03:06:58;23.50;;;5.53;;
24161;SDS011;12318;51.262;7.066;2023-11-19T03:09:24;18.98;;;5.03;;
24161;SDS011;12318;51.262;7.066;2023-11-19T03:11:51;22.10;;;5.32;;
24161;SDS011;12318;51.262;7.066;2023-11-19T03:14:17;16.77;;;4.47;;
24161;SDS011;12318;51.262;7.066;2023-11-19T03:16:46;24.67;;;5.35;;
24161;SDS011;12318;51.262;7.066;2023-11-19T03:19:12;20.05;;;5.13;;
24161;SDS011;12318;51.262;7.066;2023-11-19T03:21:39;19.92;;;5.35;;
24161;SDS011;12318;51.262;7.066;2023-11-19T03:24:05;25.30;;;5.13;;
24161;SDS011;12318;51.262;7.066;2023-11-19T03:26:32;20.98;;;4.28;;
24161;SDS011;12318;51.262;7.066;2023-11-19T03:28:59;20.70;;;5.60;;
24161;SDS011;12318;51.262;7.066;2023-11-19T03:31:26;20.88;;;5.00;;
24161;SDS011;12318;51.262;7.066;2023-11-19T03:33:52;24.02;;;4.55;;
24161;SDS011;12318;51.262;7.066;2023-11-19T03:36:18;24.25;;;4.82;;
24161;SDS011;12318;51.262;7.066;2023-11-19T03:38:44;24.77;;;4.88;;
24161;SDS011;12318;51.262;7.066;2023-11-19T03:41:13;22.83;;;5.13;;
24161;SDS011;12318;51.262;7.066;2023-11-19T03:43:40;23.38;;;4.70;;
24161;SDS011;12318;51.262;7.066;2023-11-19T03:46:17;28.27;;;4.50;;
24161;SDS011;12318;51.262;7.066;2023-11-19T03:48:43;28.80;;;5.32;;
24161;SDS011;12318;51.262;7.066;2023-11-19T03:51:09;25.65;;;5.32;;
24161;SDS011;12318;51.262;7.066;2023-11-19T03:53:35;27.50;;;4.75;;
24161;SDS011;12318;51.262;7.066;2023-11-19T03:56:01;25.52;;;4.88;;
24161;SDS011;12318;51.262;7.066;2023-11-19T03:58:27;27.67;;;5.40;;
24161;SDS011;12318;51.262;7.066;2023-11-19T04:00:53;26.27;;;5.40;;
24161;SDS011;12318;51.262;7.066;2023-11-19T04:03:19;23.83;;;5.13;;
24161;SDS011;12318;51.262;7.066;2023-11-19T04:05:45;28.65;;;5.13;;
24161;SDS011;12318;51.262;7.066;2023-11-19T04:08:11;29.10;;;4.72;;
24161;SDS011;12318;51.262;7.066;2023-11-19T04:10:37;33.63;;;5.00;;
24161;SDS011;12318;51.262;7.066;2023-11-19T04:13:04;25.73;;;4.65;;
24161;SDS011;12318;51.262;7.066;2023-11-19T04:15:30;21.27;;;4.38;;
24161;SDS011;12318;51.262;7.066;2023-11-19T04:17:56;30.00;;;5.15;;
24161;SDS011;12318;51.262;7.066;2023-11-19T04:20:22;31.25;;;5.07;;
24161;SDS011;12318;51.262;7.066;2023-11-19T04:22:49;27.48;;;4.32;;
24161;SDS011;12318;51.262;7.066;2023-11-19T04:25:16;32.80;;;4.63;;
24161;SDS011;12318;51.262;7.066;2023-11-19T04:27:44;27.63;;;4.50;;
24161;SDS011;12318;51.262;7.066;2023-11-19T04:30:11;32.50;;;5.15;;
24161;SDS011;12318;51.262;7.066;2023-11-19T04:32:37;33.22;;;4.97;;
24161;SDS011;12318;51.262;7.066;2023-11-19T04:35:03;30.98;;;5.22;;
24161;SDS011;12318;51.262;7.066;2023-11-19T04:37:29;33.28;;;4.88;;
24161;SDS011;12318;51.262;7.066;2023-11-19T04:39:55;23.95;;;4.75;;
24161;SDS011;12318;51.262;7.066;2023-11-19T04:42:22;33.85;;;5.93;;
24161;SDS011;12318;51.262;7.066;2023-11-19T04:44:49;34.47;;;5.13;;
24161;SDS011;12318;51.262;7.066;2023-11-19T04:47:15;28.58;;;5.10;;
24161;SDS011;12318;51.262;7.066;2023-11-19T04:49:41;34.00;;;4.75;;
24161;SDS011;12318;51.262;7.066;2023-11-19T04:52:10;34.08;;;5.03;;
24161;SDS011;12318;51.262;7.066;2023-11-19T04:54:45;30.73;;;5.07;;
24161;SDS011;12318;51.262;7.066;2023-11-19T04:57:13;33.53;;;5.15;;
24161;SDS011;12318;51.262;7.066;2023-11-19T04:59:39;34.25;;;5.20;;
24161;SDS011;12318;51.262;7.066;2023-11-19T05:02:06;25.42;;;4.47;;
24161;SDS011;12318;51.262;7.066;2023-11-19T05:04:33;37.10;;;5.50;;
24161;SDS011;12318;51.262;7.066;2023-11-19T05:07:00;26.15;;;4.75;;
24161;SDS011;12318;51.262;7.066;2023-11-19T05:09:26;37.00;;;5.60;;
24161;SDS011;12318;51.262;7.066;2023-11-19T05:11:52;35.08;;;5.15;;
24161;SDS011;12318;51.262;7.066;2023-11-19T05:14:19;37.95;;;5.43;;
24161;SDS011;12318;51.262;7.066;2023-11-19T05:16:46;33.47;;;5.45;;
24161;SDS011;12318;51.262;7.066;2023-11-19T05:19:12;34.25;;;5.30;;
24161;SDS011;12318;51.262;7.066;2023-11-19T05:21:41;33.75;;;4.75;;
24161;SDS011;12318;51.262;7.066;2023-11-19T05:24:08;34.28;;;5.00;;
24161;SDS011;12318;51.262;7.066;2023-11-19T05:26:34;36.33;;;5.65;;
24161;SDS011;12318;51.262;7.066;2023-11-19T05:29:00;33.03;;;5.80;;
24161;SDS011;12318;51.262;7.066;2023-11-19T05:31:27;40.55;;;4.70;;
24161;SDS011;12318;51.262;7.066;2023-11-19T05:33:53;32.50;;;5.38;;
24161;SDS011;12318;51.262;7.066;2023-11-19T05:36:19;30.58;;;4.63;;
24161;SDS011;12318;51.262;7.066;2023-11-19T05:38:45;39.05;;;5.68;;
24161;SDS011;12318;51.262;7.066;2023-11-19T05:41:11;41.10;;;6.32;;
24161;SDS011;12318;51.262;7.066;2023-11-19T05:43:37;33.42;;;5.10;;
24161;SDS011;12318;51.262;7.066;2023-11-19T05:46:05;34.42;;;5.18;;
24161;SDS011;12318;51.262;7.066;2023-11-19T05:48:31;30.50;;;4.55;;
24161;SDS011;12318;51.262;7.066;2023-11-19T05:50:58;32.97;;;6.10;;
24161;SDS011;12318;51.262;7.066;2023-11-19T05:53:25;29.52;;;5.00;;
24161;SDS011;12318;51.262;7.066;2023-11-19T05:55:51;27.85;;;4.93;;
24161;SDS011;12318;51.262;7.066;2023-11-19T05:58:24;32.55;;;5.15;;
24161;SDS011;12318;51.262;7.066;2023-11-19T06:00:57;27.60;;;4.80;;
24161;SDS011;12318;51.262;7.066;2023-11-19T06:03:25;34.42;;;5.95;;
24161;SDS011;12318;51.262;7.066;2023-11-19T06:05:52;39.42;;;5.55;;
24161;SDS011;12318;51.262;7.066;2023-11-19T06:08:19;38.13;;;4.88;;
24161;SDS011;12318;51.262;7.066;2023-11-19T06:10:48;41.58;;;5.57;;
24161;SDS011;12318;51.262;7.066;2023-11-19T06:13:16;31.50;;;5.35;;
24161;SDS011;12318;51.262;7.066;2023-11-19T06:15:42;31.80;;;4.68;;
24161;SDS011;12318;51.262;7.066;2023-11-19T06:18:09;35.63;;;5.60;;
24161;SDS011;12318;51.262;7.066;2023-11-19T06:20:36;33.85;;;5.13;;
24161;SDS011;12318;51.262;7.066;2023-11-19T06:23:03;27.55;;;4.82;;
24161;SDS011;12318;51.262;7.066;2023-11-19T06:25:29;31.20;;;5.05;;
24161;SDS011;12318;51.262;7.066;2023-11-19T06:27:55;27.85;;;4.95;;
24161;SDS011;12318;51.262;7.066;2023-11-19T06:30:22;26.92;;;4.32;;
24161;SDS011;12318;51.262;7.066;2023-11-19T06:32:49;32.92;;;5.30;;
24161;SDS011;12318;51.262;7.066;2023-11-19T06:35:15;26.90;;;4.97;;
24161;SDS011;12318;51.262;7.066;2023-11-19T06:37:41;35.75;;;5.13;;
24161;SDS011;12318;51.262;7.066;2023-11-19T06:40:07;36.83;;;6.10;;
24161;SDS011;12318;51.262;7.066;2023-11-19T06:42:34;29.98;;;5.10;;
24161;SDS011;12318;51.262;7.066;2023-11-19T06:45:01;40.35;;;5.15;;
24161;SDS011;12318;51.262;7.066;2023-11-19T06:47:28;30.73;;;5.15;;
24161;SDS011;12318;51.262;7.066;2023-11-19T06:49:54;38.10;;;5.60;;
24161;SDS011;12318;51.262;7.066;2023-11-19T06:52:20;35.65;;;5.90;;
24161;SDS011;12318;51.262;7.066;2023-11-19T06:54:47;32.72;;;5.53;;
24161;SDS011;12318;51.262;7.066;2023-11-19T06:57:13;39.25;;;5.70;;
24161;SDS011;12318;51.262;7.066;2023-11-19T06:59:40;38.33;;;6.05;;
24161;SDS011;12318;51.262;7.066;2023-11-19T07:02:06;39.03;;;5.63;;
24161;SDS011;12318;51.262;7.066;2023-11-19T07:04:32;36.30;;;5.35;;
24161;SDS011;12318;51.262;7.066;2023-11-19T07:06:58;37.22;;;5.43;;
24161;SDS011;12318;51.262;7.066;2023-11-19T07:09:25;27.95;;;4.63;;
24161;SDS011;12318;51.262;7.066;2023-11-19T07:11:51;39.17;;;5.97;;
24161;SDS011;12318;51.262;7.066;2023-11-19T07:14:18;42.22;;;5.78;;
24161;SDS011;12318;51.262;7.066;2023-11-19T07:16:44;34.38;;;5.47;;
24161;SDS011;12318;51.262;7.066;2023-11-19T07:19:11;36.35;;;5.78;;
24161;SDS011;12318;51.262;7.066;2023-11-19T07:21:39;42.15;;;5.97;;
24161;SDS011;12318;51.262;7.066;2023-11-19T07:24:09;38.92;;;5.07;;
24161;SDS011;12318;51.262;7.066;2023-11-19T07:26:36;30.95;;;5.07;;
24161;SDS011;12318;51.262;7.066;2023-11-19T07:29:02;37.03;;;5.38;;
24161;SDS011;12318;51.262;7.066;2023-11-19T07:31:32;44.58;;;6.22;;
24161;SDS011;12318;51.262;7.066;2023-11-19T07:33:58;35.10;;;5.68;;
24161;SDS011;12318;51.262;7.066;2023-11-19T07:36:25;34.47;;;5.85;;
24161;SDS011;12318;51.262;7.066;2023-11-19T07:38:51;44.72;;;6.70;;
24161;SDS011;12318;51.262;7.066;2023-11-19T07:41:17;35.25;;;6.50;;
24161;SDS011;12318;51.262;7.066;2023-11-19T07:43:45;38.63;;;6.28;;
24161;SDS011;12318;51.262;7.066;2023-11-19T07:46:15;34.30;;;6.00;;
24161;SDS011;12318;51.262;7.066;2023-11-19T07:48:44;39.83;;;5.50;;
24161;SDS011;12318;51.262;7.066;2023-11-19T07:51:12;38.90;;;6.65;;
24161;SDS011;12318;51.262;7.066;2023-11-19T07:53:39;41.10;;;6.10;;
24161;SDS011;12318;51.262;7.066;2023-11-19T07:56:05;42.13;;;6.72;;
24161;SDS011;12318;51.262;7.066;2023-11-19T07:58:32;44.45;;;5.90;;
24161;SDS011;12318;51.262;7.066;2023-11-19T08:00:58;41.50;;;7.00;;
24161;SDS011;12318;51.262;7.066;2023-11-19T08:03:24;33.58;;;5.35;;
24161;SDS011;12318;51.262;7.066;2023-11-19T08:05:50;42.03;;;6.25;;
24161;SDS011;12318;51.262;7.066;2023-11-19T08:08:16;39.00;;;5.90;;
24161;SDS011;12318;51.262;7.066;2023-11-19T08:10:43;45.30;;;6.35;;
24161;SDS011;12318;51.262;7.066;2023-11-19T08:13:10;37.25;;;6.65;;
24161;SDS011;12318;51.262;7.066;2023-11-19T08:15:36;35.53;;;5.20;;
24161;SDS011;12318;51.262;7.066;2023-11-19T08:18:02;33.17;;;5.93;;
24161;SDS011;12318;51.262;7.066;2023-11-19T08:20:28;48.10;;;6.55;;
24161;SDS011;12318;51.262;7.066;2023-11-19T08:22:54;38.10;;;5.30;;
24161;SDS011;12318;51.262;7.066;2023-11-19T08:25:21;35.80;;;5.63;;
24161;SDS011;12318;51.262;7.066;2023-11-19T08:27:47;40.70;;;6.25;;
24161;SDS011;12318;51.262;7.066;2023-11-19T08:30:13;39.67;;;6.63;;
24161;SDS011;12318;51.262;7.066;2023-11-19T08:32:39;36.92;;;6.35;;
24161;SDS011;12318;51.262;7.066;2023-11-19T08:35:06;38.15;;;5.80;;
24161;SDS011;12318;51.262;7.066;2023-11-19T08:37:32;35.08;;;5.75;;
24161;SDS011;12318;51.262;7.066;2023-11-19T08:39:58;38.97;;;6.05;;
24161;SDS011;12318;51.262;7.066;2023-11-19T08:42:24;31.77;;;5.47;;
24161;SDS011;12318;51.262;7.066;2023-11-19T08:44:51;37.15;;;6.03;;
24161;SDS011;12318;51.262;7.066;2023-11-19T08:47:19;35.53;;;5.43;;
24161;SDS011;12318;51.262;7.066;2023-11-19T08:49:47;37.08;;;5.55;;
24161;SDS011;12318;51.262;7.066;2023-11-19T08:52:13;35.33;;;5.20;;
24161;SDS011;12318;51.262;7.066;2023-11-19T08:54:44;39.70;;;6.80;;
24161;SDS011;12318;51.262;7.066;2023-11-19T08:57:10;34.50;;;5.40;;
24161;SDS011;12318;51.262;7.066;2023-11-19T08:59:36;34.72;;;6.00;;
24161;SDS011;12318;51.262;7.066;2023-11-19T09:02:05;29.85;;;5.40;;
24161;SDS011;12318;51.262;7.066;2023-11-19T09:04:32;39.70;;;5.90;;
24161;SDS011;12318;51.262;7.066;2023-11-19T09:06:58;38.00;;;6.68;;
24161;SDS011;12318;51.262;7.066;2023-11-19T09:09:24;33.70;;;5.13;;
24161;SDS011;12318;51.262;7.066;2023-11-19T09:11:51;39.67;;;5.55;;
24161;SDS011;12318;51.262;7.066;2023-11-19T09:14:17;37.72;;;5.68;;
24161;SDS011;12318;51.262;7.066;2023-11-19T09:16:43;31.20;;;5.78;;
24161;SDS011;12318;51.262;7.066;2023-11-19T09:19:09;39.17;;;6.22;;
24161;SDS011;12318;51.262;7.066;2023-11-19T09:21:35;33.08;;;5.45;;
24161;SDS011;12318;51.262;7.066;2023-11-19T09:24:04;31.92;;;5.47;;
24161;SDS011;12318;51.262;7.066;2023-11-19T09:26:32;33.05;;;5.55;;
24161;SDS011;12318;51.262;7.066;2023-11-19T09:28:58;36.63;;;5.82;;
24161;SDS011;12318;51.262;7.066;2023-11-19T09:31:24;38.05;;;5.95;;
24161;SDS011;12318;51.262;7.066;2023-11-19T09:33:50;37.70;;;6.50;;
24161;SDS011;12318;51.262;7.066;2023-11-19T09:36:16;35.60;;;5.90;;
24161;SDS011;12318;51.262;7.066;2023-11-19T09:38:44;28.85;;;5.20;;
24161;SDS011;12318;51.262;7.066;2023-11-19T09:41:10;31.48;;;5.80;;
24161;SDS011;12318;51.262;7.066;2023-11-19T09:43:40;29.40;;;5.18;;
24161;SDS011;12318;51.262;7.066;2023-11-19T09:46:06;35.72;;;5.88;;
24161;SDS011;12318;51.262;7.066;2023-11-19T09:48:36;32.75;;;5.65;;
24161;SDS011;12318;51.262;7.066;2023-11-19T09:51:03;36.95;;;5.80;;
24161;SDS011;12318;51.262;7.066;2023-11-19T09:53:30;35.70;;;5.35;;
24161;SDS011;12318;51.262;7.066;2023-11-19T09:55:56;50.08;;;6.78;;
24161;SDS011;12318;51.262;7.066;2023-11-19T09:58:23;32.22;;;5.95;;
24161;SDS011;12318;51.262;7.066;2023-11-19T10:00:49;36.08;;;6.07;;
24161;SDS011;12318;51.262;7.066;2023-11-19T10:03:17;29.23;;;5.63;;
24161;SDS011;12318;51.262;7.066;2023-11-19T10:05:43;33.35;;;5.85;;
24161;SDS011;12318;51.262;7.066;2023-11-19T10:08:09;32.20;;;5.43;;
24161;SDS011;12318;51.262;7.066;2023-11-19T10:10:36;34.72;;;5.63;;
24161;SDS011;12318;51.262;7.066;2023-11-19T10:13:03;37.58;;;6.15;;
24161;SDS011;12318;51.262;7.066;2023-11-19T10:15:29;36.67;;;5.50;;
24161;SDS011;12318;51.262;7.066;2023-11-19T10:17:57;37.63;;;6.15;;
24161;SDS011;12318;51.262;7.066;2023-11-19T10:20:23;38.42;;;6.38;;
24161;SDS011;12318;51.262;7.066;2023-11-19T10:22:55;42.15;;;6.97;;
24161;SDS011;12318;51.262;7.066;2023-11-19T10:25:23;32.55;;;5.47;;
24161;SDS011;12318;51.262;7.066;2023-11-19T10:27:50;33.15;;;5.28;;
24161;SDS011;12318;51.262;7.066;2023-11-19T10:30:22;30.13;;;5.75;;
24161;SDS011;12318;51.262;7.066;2023-11-19T10:33:04;30.80;;;4.97;;
24161;SDS011;12318;51.262;7.066;2023-11-19T10:35:31;41.92;;;6.15;;
24161;SDS011;12318;51.262;7.066;2023-11-19T10:37:59;31.02;;;5.32;;
24161;SDS011;12318;51.262;7.066;2023-11-19T10:40:37;40.72;;;6.65;;
24161;SDS011;12318;51.262;7.066;2023-11-19T10:43:04;34.63;;;6.10;;
24161;SDS011;12318;51.262;7.066;2023-11-19T10:45:33;35.85;;;5.88;;
24161;SDS011;12318;51.262;7.066;2023-11-19T10:47:59;35.70;;;6.57;;
24161;SDS011;12318;51.262;7.066;2023-11-19T10:50:26;39.85;;;6.07;;
24161;SDS011;12318;51.262;7.066;2023-11-19T10:52:55;35.03;;;6.38;;
24161;SDS011;12318;51.262;7.066;2023-11-19T10:55:28;31.42;;;6.32;;
24161;SDS011;12318;51.262;7.066;2023-11-19T10:58:05;37.00;;;6.07;;
24161;SDS011;12318;51.262;7.066;2023-11-19T11:03:01;32.78;;;6.43;;
24161;SDS011;12318;51.262;7.066;2023-11-19T11:05:29;38.55;;;6.10;;
24161;SDS011;12318;51.262;7.066;2023-11-19T11:07:55;33.20;;;5.60;;
24161;SDS011;12318;51.262;7.066;2023-11-19T11:10:23;29.42;;;5.85;;
24161;SDS011;12318;51.262;7.066;2023-11-19T11:12:51;31.92;;;5.75;;
24161;SDS011;12318;51.262;7.066;2023-11-19T11:15:27;29.77;;;5.95;;
24161;SDS011;12318;51.262;7.066;2023-11-19T11:17:57;31.98;;;5.65;;
24161;SDS011;12318;51.262;7.066;2023-11-19T11:20:26;33.95;;;5.95;;
24161;SDS011;12318;51.262;7.066;2023-11-19T11:23:01;36.13;;;5.38;;
24161;SDS011;12318;51.262;7.066;2023-11-19T11:25:36;40.95;;;6.22;;
24161;SDS011;12318;51.262;7.066;2023-11-19T11:28:09;38.65;;;5.70;;
24161;SDS011;12318;51.262;7.066;2023-11-19T11:38:14;44.83;;;5.95;;
24161;SDS011;12318;51.262;7.066;2023-11-19T11:40:40;32.00;;;5.60;;
24161;SDS011;12318;51.262;7.066;2023-11-19T11:45:53;27.38;;;5.18;;
24161;SDS011;12318;51.262;7.066;2023-11-19T11:48:19;33.08;;;5.22;;
24161;SDS011;12318;51.262;7.066;2023-11-19T11:50:47;27.98;;;4.70;;
24161;SDS011;12318;51.262;7.066;2023-11-19T11:53:14;23.92;;;4.68;;
24161;SDS011;12318;51.262;7.066;2023-11-19T11:58:19;27.17;;;4.65;;
24161;SDS011;12318;51.262;7.066;2023-11-19T12:00:45;31.90;;;5.40;;
24161;SDS011;12318;51.262;7.066;2023-11-19T12:03:13;25.17;;;4.55;;
24161;SDS011;12318;51.262;7.066;2023-11-19T12:05:43;27.67;;;5.15;;
24161;SDS011;12318;51.262;7.066;2023-11-19T12:08:10;25.27;;;4.60;;
24161;SDS011;12318;51.262;7.066;2023-11-19T12:10:46;27.77;;;4.63;;
24161;SDS011;12318;51.262;7.066;2023-11-19T12:13:16;30.38;;;4.82;;
24161;SDS011;12318;51.262;7.066;2023-11-19T12:18:31;27.70;;;4.28;;
24161;SDS011;12318;51.262;7.066;2023-11-19T12:20:58;25.92;;;4.97;;
24161;SDS011;12318;51.262;7.066;2023-11-19T12:23:30;22.30;;;4.65;;
24161;SDS011;12318;51.262;7.066;2023-11-19T12:25:57;27.00;;;4.88;;
24161;SDS011;12318;51.262;7.066;2023-11-19T12:28:23;16.50;;;3.85;;
24161;SDS011;12318;51.262;7.066;2023-11-19T12:30:51;28.58;;;4.53;;
24161;SDS011;12318;51.262;7.066;2023-11-19T12:33:19;25.70;;;4.72;;
24161;SDS011;12318;51.262;7.066;2023-11-19T12:35:45;23.30;;;4.55;;
24161;SDS011;12318;51.262;7.066;2023-11-19T12:38:21;19.63;;;4.03;;
24161;SDS011;12318;51.262;7.066;2023-11-19T12:40:47;24.88;;;4.53;;
24161;SDS011;12318;51.262;7.066;2023-11-19T12:43:23;24.40;;;4.35;;
24161;SDS011;12318;51.262;7.066;2023-11-19T12:45:49;20.48;;;4.18;;
24161;SDS011;12318;51.262;7.066;2023-11-19T12:48:15;29.05;;;4.70;;
24161;SDS011;12318;51.262;7.066;2023-11-19T12:53:17;25.13;;;4.55;;
24161;SDS011;12318;51.262;7.066;2023-11-19T12:55:43;21.67;;;4.25;;
24161;SDS011;12318;51.262;7.066;2023-11-19T12:58:09;23.92;;;4.65;;
24161;SDS011;12318;51.262;7.066;2023-11-19T13:00:36;26.77;;;4.65;;
24161;SDS011;12318;51.262;7.066;2023-11-19T13:03:02;24.25;;;4.13;;
24161;SDS011;12318;51.262;7.066;2023-11-19T13:08:05;28.60;;;4.32;;
24161;SDS011;12318;51.262;7.066;2023-11-19T13:10:51;29.13;;;4.50;;
24161;SDS011;12318;51.262;7.066;2023-11-19T13:13:18;27.45;;;4.43;;
24161;SDS011;12318;51.262;7.066;2023-11-19T13:15:45;22.10;;;3.92;;
24161;SDS011;12318;51.262;7.066;2023-11-19T13:18:11;19.33;;;3.85;;
24161;SDS011;12318;51.262;7.066;2023-11-19T13:20:38;24.13;;;4.28;;
24161;SDS011;12318;51.262;7.066;2023-11-19T13:23:05;23.05;;;4.72;;
24161;SDS011;12318;51.262;7.066;2023-11-19T13:25:40;23.42;;;4.20;;
24161;SDS011;12318;51.262;7.066;2023-11-19T13:28:06;21.55;;;3.83;;
24161;SDS011;12318;51.262;7.066;2023-11-19T13:30:32;25.13;;;4.22;;
24161;SDS011;12318;51.262;7.066;2023-11-19T13:32:58;28.58;;;5.03;;
24161;SDS011;12318;51.262;7.066;2023-11-19T13:35:25;25.13;;;4.22;;
24161;SDS011;12318;51.262;7.066;2023-11-19T13:37:53;24.73;;;4.90;;
24161;SDS011;12318;51.262;7.066;2023-11-19T13:40:19;25.45;;;4.68;;
24161;SDS011;12318;51.262;7.066;2023-11-19T13:42:47;20.23;;;3.97;;
24161;SDS011;12318;51.262;7.066;2023-11-19T13:45:14;28.85;;;4.72;;
24161;SDS011;12318;51.262;7.066;2023-11-19T13:47:41;22.77;;;3.40;;
24161;SDS011;12318;51.262;7.066;2023-11-19T13:50:11;25.70;;;4.55;;
24161;SDS011;12318;51.262;7.066;2023-11-19T13:52:38;26.25;;;4.40;;
24161;SDS011;12318;51.262;7.066;2023-11-19T13:55:05;25.98;;;4.15;;
24161;SDS011;12318;51.262;7.066;2023-11-19T13:57:31;24.50;;;4.07;;
24161;SDS011;12318;51.262;7.066;2023-11-19T13:59:59;22.33;;;4.15;;
24161;SDS011;12318;51.262;7.066;2023-11-19T14:02:25;24.33;;;4.43;;
24161;SDS011;12318;51.262;7.066;2023-11-19T14:04:51;25.38;;;4.55;;
24161;SDS011;12318;51.262;7.066;2023-11-19T14:07:18;29.20;;;4.45;;
24161;SDS011;12318;51.262;7.066;2023-11-19T14:09:44;24.58;;;4.07;;
24161;SDS011;12318;51.262;7.066;2023-11-19T14:12:11;25.08;;;4.57;;
24161;SDS011;12318;51.262;7.066;2023-11-19T14:14:38;23.73;;;4.53;;
24161;SDS011;12318;51.262;7.066;2023-11-19T14:17:04;29.05;;;4.60;;
24161;SDS011;12318;51.262;7.066;2023-11-19T14:19:30;32.58;;;4.63;;
24161;SDS011;12318;51.262;7.066;2023-11-19T14:21:57;24.88;;;4.38;;
24161;SDS011;12318;51.262;7.066;2023-11-19T14:24:23;31.50;;;6.38;;
24161;SDS011;12318;51.262;7.066;2023-11-19T14:26:50;34.42;;;6.35;;
24161;SDS011;12318;51.262;7.066;2023-11-19T14:29:17;35.50;;;7.10;;
24161;SDS011;12318;51.262;7.066;2023-11-19T14:31:43;35.22;;;6.05;;
24161;SDS011;12318;51.262;7.066;2023-11-19T14:34:09;28.20;;;4.88;;
24161;SDS011;12318;51.262;7.066;2023-11-19T14:36:35;29.10;;;5.82;;
24161;SDS011;12318;51.262;7.066;2023-11-19T14:39:01;32.30;;;5.38;;
24161;SDS011;12318;51.262;7.066;2023-11-19T14:41:29;27.42;;;4.72;;
24161;SDS011;12318;51.262;7.066;2023-11-19T14:43:55;27.60;;;5.15;;
24161;SDS011;12318;51.262;7.066;2023-11-19T14:46:21;33.13;;;4.78;;
24161;SDS011;12318;51.262;7.066;2023-11-19T14:48:47;29.80;;;5.03;;
24161;SDS011;12318;51.262;7.066;2023-11-19T14:51:13;24.13;;;4.55;;
24161;SDS011;12318;51.262;7.066;2023-11-19T14:53:39;28.98;;;4.90;;
24161;SDS011;12318;51.262;7.066;2023-11-19T14:56:05;34.28;;;5.70;;
24161;SDS011;12318;51.262;7.066;2023-11-19T14:58:37;32.03;;;5.03;;
24161;SDS011;12318;51.262;7.066;2023-11-19T15:01:03;34.90;;;5.25;;